This is the latest recevied weather packets stored in our database for station/object W5ADC. If no packets are shown the sender has not sent any weather packets the latest 10 day(s).
| Time | Temp. | Humidity | Pressure | Rain* | Wind** | Luminosity | Snow |
|---|---|---|---|---|---|---|---|
| 1778085123 | 11.67° C | 99% | 1011.5 hPa | 0 mm | - | 140 W/m² | - |
| 1778084819 | 11.11° C | 99% | 1011.7 hPa | 0 mm | - | 145 W/m² | - |
| 1778084517 | 11.11° C | 99% | 1011.9 hPa | 0 mm | - | 155 W/m² | - |
| 1778084214 | 11.11° C | 99% | 1011.5 hPa | 0 mm | - | 212 W/m² | - |
| 1778083910 | 11.67° C | 99% | 1011 hPa | 0 mm | - | 305 W/m² | - |
| 1778083608 | 11.11° C | 99% | 1010.6 hPa | 0 mm | - | 307 W/m² | - |
| 1778083305 | 11.67° C | 99% | 1009.8 hPa | 0 mm | - | 276 W/m² | - |
| 1778083004 | 11.67° C | 97% | 1009.7 hPa | 0 mm | - | 237 W/m² | - |
| 1778082700 | 11.67° C | 92% | 1012.2 hPa | 7.87 mm | - | 40 W/m² | - |
| 1778081562 | 11.67° C | 90% | 1012.7 hPa | 3.05 mm | - | 16 W/m² | - |
| 1778081259 | 11.67° C | 88% | 1013.1 hPa | 1.78 mm | - | 16 W/m² | - |
| 1778080957 | 12.22° C | 85% | 1012.2 hPa | 0 mm | - | 18 W/m² | - |
| 1778080656 | 12.22° C | 84% | 1012.2 hPa | 0 mm | - | 15 W/m² | - |
| 1778080352 | 12.22° C | 84% | 1011.4 hPa | 0 mm | - | 22 W/m² | - |
| 1778080048 | 12.22° C | 83% | 1011 hPa | 0 mm | - | 70 W/m² | - |
| 1778079746 | 12.22° C | 83% | 1010.6 hPa | 0 mm | - | 93 W/m² | - |
| 1778079443 | 12.22° C | 83% | 1010.4 hPa | 0 mm | - | 80 W/m² | - |
| 1778079139 | 12.22° C | 83% | 1011.3 hPa | 0 mm | - | 71 W/m² | - |
| 1778078836 | 12.22° C | 83% | 1010.9 hPa | 0 mm | - | 73 W/m² | - |
| 1778078533 | 12.22° C | 84% | 1010.9 hPa | 0 mm | - | 93 W/m² | - |
| 1778078231 | 12.22° C | 84% | 1011.1 hPa | 0 mm | - | 94 W/m² | - |
| 1778077928 | 12.22° C | 84% | 1011.1 hPa | 0 mm | - | 69 W/m² | - |
| 1778077627 | 12.22° C | 85% | 1011 hPa | 0 mm | - | 45 W/m² | - |
| 1778077324 | 12.22° C | 86% | 1010.9 hPa | 0 mm | - | 69 W/m² | - |
| 1778077022 | 12.22° C | 85% | 1010.6 hPa | 0 mm | - | 65 W/m² | - |
* Rain latest hour (hover to see other rain measurements)
** Current wind speed in m/s (hover to see current wind gust speed)